createdAt,value
2018-02-16T00:01:15.320Z,4.23
2018-02-16T00:03:41.477Z,4.23
2018-02-16T00:06:07.756Z,4.20
2018-02-16T00:08:33.946Z,4.15
2018-02-16T00:11:00.158Z,4.11
2018-02-16T00:13:26.369Z,4.10
2018-02-16T00:15:52.510Z,4.07
2018-02-16T00:18:18.719Z,4.09
2018-02-16T00:20:44.935Z,4.10
2018-02-16T00:23:11.077Z,4.08
2018-02-16T00:25:37.302Z,4.04
2018-02-16T00:28:03.543Z,4.03
2018-02-16T00:30:29.695Z,3.97
2018-02-16T00:32:55.870Z,3.90
2018-02-16T00:35:22.012Z,3.78
2018-02-16T00:37:48.159Z,3.67
2018-02-16T00:40:14.404Z,3.56
2018-02-16T00:42:40.578Z,3.50
2018-02-16T00:45:06.730Z,3.46
2018-02-16T00:47:32.884Z,3.42
2018-02-16T00:49:59.112Z,3.37
2018-02-16T00:52:25.350Z,3.31
2018-02-16T00:54:51.481Z,3.24
2018-02-16T00:57:17.659Z,3.17
2018-02-16T00:59:43.949Z,3.11
2018-02-16T01:02:10.038Z,3.06
2018-02-16T01:04:36.185Z,3.01
2018-02-16T01:07:02.384Z,2.96
2018-02-16T01:09:28.562Z,2.92
2018-02-16T01:11:54.724Z,2.86
2018-02-16T01:14:20.926Z,2.78
2018-02-16T01:16:47.086Z,2.73
2018-02-16T01:19:13.295Z,2.66
2018-02-16T01:21:39.501Z,2.60
2018-02-16T01:24:05.644Z,2.56
2018-02-16T01:26:31.811Z,2.52
2018-02-16T01:28:58.030Z,2.49
2018-02-16T01:31:24.222Z,2.50
2018-02-16T01:33:50.368Z,2.49
2018-02-16T01:36:16.548Z,2.49
2018-02-16T01:38:42.760Z,2.50
2018-02-16T01:41:08.933Z,2.50
2018-02-16T01:43:35.070Z,2.50
2018-02-16T01:46:01.259Z,2.49
2018-02-16T01:48:27.397Z,2.49
2018-02-16T01:50:53.601Z,2.51
2018-02-16T01:53:19.811Z,2.52
2018-02-16T01:55:45.984Z,2.58
2018-02-16T01:58:12.120Z,2.64
2018-02-16T02:00:38.319Z,2.71
2018-02-16T02:03:04.467Z,2.79
2018-02-16T02:05:30.629Z,2.84
2018-02-16T02:07:56.824Z,2.88
2018-02-16T02:10:23.174Z,2.94
2018-02-16T02:12:49.329Z,3.02
2018-02-16T02:15:15.485Z,3.06
2018-02-16T02:17:41.662Z,3.09
2018-02-16T02:20:07.904Z,3.10
2018-02-16T02:22:34.079Z,3.10
2018-02-16T02:25:00.222Z,3.15
2018-02-16T02:27:26.422Z,3.18
2018-02-16T02:29:52.639Z,3.16
2018-02-16T02:32:18.835Z,3.18
2018-02-16T02:34:45.030Z,3.20
2018-02-16T02:37:11.151Z,3.22
2018-02-16T02:39:37.380Z,3.22
2018-02-16T02:42:03.588Z,3.16
2018-02-16T02:44:29.775Z,3.12
2018-02-16T02:46:55.955Z,3.12
2018-02-16T02:49:22.144Z,3.14
2018-02-16T02:51:48.367Z,3.09
2018-02-16T02:54:14.503Z,3.05
2018-02-16T02:56:40.649Z,3.06
2018-02-16T02:59:06.821Z,3.04
2018-02-16T03:01:33.092Z,3.03
2018-02-16T03:03:59.273Z,3.01
2018-02-16T03:06:32.431Z,3.03
2018-02-16T03:08:58.662Z,3.04
2018-02-16T03:11:24.976Z,3.04
2018-02-16T03:13:51.164Z,3.05
2018-02-16T03:16:17.308Z,3.06
2018-02-16T03:18:43.436Z,3.06
2018-02-16T03:21:09.610Z,3.05
2018-02-16T03:23:35.699Z,3.06
2018-02-16T03:26:01.813Z,3.04
2018-02-16T03:28:27.955Z,3.02
2018-02-16T03:30:54.092Z,3.03
2018-02-16T03:33:20.195Z,3.01
2018-02-16T03:35:46.346Z,3.03
2018-02-16T03:38:12.520Z,3.00
2018-02-16T03:40:38.676Z,2.97
2018-02-16T03:43:04.792Z,2.95
2018-02-16T03:45:30.912Z,2.96
2018-02-16T03:47:57.034Z,2.94
2018-02-16T03:50:23.206Z,2.90
2018-02-16T03:52:49.337Z,2.88
2018-02-16T03:55:15.439Z,2.87
2018-02-16T03:57:41.567Z,2.86
2018-02-16T04:00:07.789Z,2.87
2018-02-16T04:02:33.890Z,2.85
2018-02-16T04:05:00.005Z,2.80
2018-02-16T04:07:26.122Z,2.82
2018-02-16T04:09:52.262Z,2.82
2018-02-16T04:12:18.398Z,2.80
2018-02-16T04:14:44.507Z,2.79
2018-02-16T04:17:10.618Z,2.79
2018-02-16T04:19:36.929Z,2.77
2018-02-16T04:22:03.099Z,2.79
2018-02-16T04:24:29.220Z,2.76
2018-02-16T04:26:55.323Z,2.75
2018-02-16T04:29:21.457Z,2.75
2018-02-16T04:31:47.605Z,2.73
2018-02-16T04:34:13.719Z,2.73
2018-02-16T04:36:39.811Z,2.72
2018-02-16T04:39:05.993Z,2.73
2018-02-16T04:41:32.143Z,2.69
2018-02-16T04:43:58.238Z,2.77
2018-02-16T04:46:24.363Z,2.84
2018-02-16T04:48:50.497Z,2.83
2018-02-16T04:51:16.642Z,2.87
2018-02-16T04:53:42.730Z,2.91
2018-02-16T04:56:08.854Z,2.90
2018-02-16T04:58:35.005Z,2.85
2018-02-16T05:01:01.172Z,2.78
2018-02-16T05:03:27.302Z,2.68
2018-02-16T05:05:53.394Z,2.66
2018-02-16T05:08:19.559Z,2.67
2018-02-16T05:10:45.741Z,2.70
2018-02-16T05:13:11.839Z,2.68
2018-02-16T05:15:37.948Z,2.67
2018-02-16T05:18:04.083Z,2.68
2018-02-16T05:20:30.240Z,2.64
2018-02-16T05:22:56.376Z,2.65
2018-02-16T05:25:22.562Z,2.68
2018-02-16T05:27:48.681Z,2.66
2018-02-16T05:30:14.858Z,2.65
2018-02-16T05:32:41.066Z,2.64
2018-02-16T05:35:07.155Z,2.64
2018-02-16T05:37:33.327Z,2.61
2018-02-16T05:39:59.408Z,2.55
2018-02-16T05:42:25.589Z,2.52
2018-02-16T05:44:51.687Z,2.48
2018-02-16T05:47:17.800Z,2.44
2018-02-16T05:49:43.947Z,2.40
2018-02-16T05:52:10.095Z,2.35
2018-02-16T05:54:36.213Z,2.27
2018-02-16T05:57:02.348Z,2.14
2018-02-16T05:59:28.460Z,2.02
2018-02-16T06:01:54.628Z,1.92
2018-02-16T06:04:20.810Z,1.81
2018-02-16T06:06:46.921Z,1.74
2018-02-16T06:09:13.065Z,1.67
2018-02-16T06:11:39.232Z,1.60
2018-02-16T06:14:05.318Z,1.53
2018-02-16T06:16:31.428Z,1.46
2018-02-16T06:18:57.551Z,1.41
2018-02-16T06:21:23.708Z,1.37
2018-02-16T06:23:49.825Z,1.35
2018-02-16T06:26:15.963Z,1.33
2018-02-16T06:28:42.060Z,1.29
2018-02-16T06:31:08.219Z,1.29
2018-02-16T06:33:34.348Z,1.26
2018-02-16T06:36:00.450Z,1.22
2018-02-16T06:38:26.609Z,1.18
2018-02-16T06:40:52.763Z,1.20
2018-02-16T06:43:18.891Z,1.20
2018-02-16T06:45:45.022Z,1.18
2018-02-16T06:48:11.154Z,1.16
2018-02-16T06:50:37.341Z,1.12
2018-02-16T06:53:03.448Z,1.12
2018-02-16T06:55:29.610Z,1.11
2018-02-16T06:57:55.730Z,1.10
2018-02-16T07:00:21.857Z,1.06
2018-02-16T07:02:48.016Z,1.05
2018-02-16T07:05:14.159Z,1.01
2018-02-16T07:07:40.338Z,0.99
2018-02-16T07:10:06.476Z,0.96
2018-02-16T07:12:32.630Z,1.00
2018-02-16T07:14:58.747Z,1.03
2018-02-16T07:17:24.938Z,1.06
2018-02-16T07:19:51.037Z,1.17
2018-02-16T07:22:17.191Z,1.22
2018-02-16T07:24:43.385Z,1.29
2018-02-16T07:27:09.537Z,1.37
2018-02-16T07:29:35.652Z,1.40
2018-02-16T07:32:01.831Z,1.42
2018-02-16T07:34:27.947Z,1.45
2018-02-16T07:36:54.081Z,1.45
2018-02-16T07:39:20.256Z,1.46
2018-02-16T07:41:46.423Z,1.48
2018-02-16T07:44:12.567Z,1.49
2018-02-16T07:46:38.691Z,1.49
2018-02-16T07:49:04.973Z,1.50
2018-02-16T07:51:31.250Z,1.50
2018-02-16T07:53:57.364Z,1.54
2018-02-16T07:56:23.499Z,1.61
2018-02-16T07:58:49.652Z,1.68
2018-02-16T08:01:15.821Z,1.75
2018-02-16T08:03:41.929Z,1.80
2018-02-16T08:06:08.130Z,1.90
2018-02-16T08:08:34.297Z,1.96
2018-02-16T08:11:00.480Z,2.05
2018-02-16T08:13:26.656Z,2.16
2018-02-16T08:15:52.776Z,2.24
2018-02-16T08:18:18.875Z,2.31
2018-02-16T08:20:44.997Z,2.37
2018-02-16T08:23:11.158Z,2.45
2018-02-16T08:25:37.296Z,2.52
2018-02-16T08:28:03.430Z,2.63
2018-02-16T08:30:29.530Z,2.70
2018-02-16T08:32:55.688Z,2.76
2018-02-16T08:35:21.820Z,2.84
2018-02-16T08:37:47.975Z,2.94
2018-02-16T08:40:14.101Z,3.04
2018-02-16T08:42:40.257Z,3.18
2018-02-16T08:45:06.376Z,3.31
2018-02-16T08:47:32.516Z,3.57
2018-02-16T08:49:58.639Z,4.04
2018-02-16T08:52:24.830Z,4.95
2018-02-16T08:54:50.943Z,6.25
2018-02-16T08:57:17.070Z,7.51
2018-02-16T08:59:43.155Z,8.87
2018-02-16T09:02:09.377Z,9.74
2018-02-16T09:04:35.503Z,10.34
2018-02-16T09:07:01.617Z,10.84
2018-02-16T09:09:27.786Z,10.97
2018-02-16T09:11:53.966Z,10.88
2018-02-16T09:14:20.069Z,10.27
2018-02-16T09:16:46.196Z,10.01
2018-02-16T09:19:14.199Z,9.89
2018-02-16T09:21:40.353Z,9.59
2018-02-16T09:24:06.503Z,9.19
2018-02-16T09:26:32.595Z,8.94
2018-02-16T09:28:58.731Z,8.46
2018-02-16T09:31:24.884Z,8.22
2018-02-16T09:33:51.013Z,8.25
2018-02-16T09:36:17.861Z,8.08
2018-02-16T09:38:47.465Z,8.31
2018-02-16T09:41:13.564Z,8.17
2018-02-16T09:43:39.701Z,7.98
2018-02-16T09:46:05.833Z,7.71
2018-02-16T09:48:31.942Z,7.56
2018-02-16T09:50:58.114Z,7.46
2018-02-16T09:53:24.305Z,7.36
2018-02-16T09:55:50.393Z,7.08
2018-02-16T09:58:16.522Z,6.96
2018-02-16T10:00:42.624Z,6.84
2018-02-16T10:03:08.911Z,6.78
2018-02-16T10:05:35.027Z,6.67
2018-02-16T10:08:01.178Z,6.57
2018-02-16T10:10:27.280Z,6.63
2018-02-16T10:12:53.462Z,6.70
2018-02-16T10:15:19.564Z,6.72
2018-02-16T10:17:45.656Z,6.73
2018-02-16T10:22:44.739Z,6.73
2018-02-16T10:25:10.851Z,6.77
2018-02-16T10:27:36.952Z,6.84
2018-02-16T10:30:03.157Z,6.82
2018-02-16T10:32:29.294Z,6.88
2018-02-16T10:34:55.388Z,6.92
2018-02-16T10:37:21.515Z,6.95
2018-02-16T10:39:47.695Z,6.99
2018-02-16T10:42:13.852Z,7.03
2018-02-16T10:44:39.981Z,7.12
2018-02-16T10:47:06.092Z,7.19
2018-02-16T10:49:32.202Z,7.20
2018-02-16T10:51:58.357Z,7.20
2018-02-16T10:54:24.519Z,7.20
2018-02-16T10:56:50.610Z,7.21
2018-02-16T10:59:16.721Z,7.27
2018-02-16T11:01:42.925Z,7.27
2018-02-16T11:04:14.967Z,7.26
2018-02-16T11:06:47.069Z,7.22
2018-02-16T11:09:22.074Z,7.24
2018-02-16T11:11:48.264Z,7.29
2018-02-16T11:14:14.407Z,7.35
2018-02-16T11:16:40.498Z,7.37
2018-02-16T11:19:06.596Z,7.37
2018-02-16T11:21:32.720Z,7.36
2018-02-16T11:23:58.834Z,7.40
2018-02-16T11:26:24.942Z,7.48
2018-02-16T11:28:51.079Z,7.49
2018-02-16T11:31:17.177Z,7.52
2018-02-16T11:33:43.336Z,7.51
2018-02-16T11:36:09.467Z,7.50
2018-02-16T11:38:35.659Z,7.58
2018-02-16T11:41:01.778Z,7.62
2018-02-16T11:43:27.950Z,7.66
2018-02-16T11:45:54.113Z,7.71
2018-02-16T11:48:20.226Z,7.79
2018-02-16T11:50:46.405Z,7.82
2018-02-16T11:53:12.562Z,7.86
2018-02-16T11:55:38.742Z,7.85
2018-02-16T11:58:04.865Z,7.88
2018-02-16T12:00:30.978Z,7.98
2018-02-16T12:02:57.196Z,8.08
2018-02-16T12:05:23.291Z,8.15
2018-02-16T12:07:49.462Z,8.21
2018-02-16T12:10:15.685Z,8.30
2018-02-16T12:12:41.906Z,8.43
2018-02-16T12:15:08.219Z,8.49
2018-02-16T12:17:34.305Z,8.59
2018-02-16T12:20:00.439Z,8.63
2018-02-16T12:22:26.652Z,8.77
2018-02-16T12:24:52.762Z,8.81
2018-02-16T12:27:18.876Z,8.85
2018-02-16T12:29:44.992Z,8.87
2018-02-16T12:32:11.096Z,8.94
2018-02-16T12:34:37.292Z,9.09
2018-02-16T12:37:03.414Z,9.28
2018-02-16T12:39:29.624Z,9.37
2018-02-16T12:41:55.745Z,9.56
2018-02-16T12:44:21.948Z,9.70
2018-02-16T12:46:48.052Z,9.66
2018-02-16T12:49:14.145Z,9.62
2018-02-16T12:51:41.414Z,9.66
2018-02-16T12:54:07.658Z,9.70
2018-02-16T12:56:33.812Z,9.66
2018-02-16T12:58:59.982Z,9.57
2018-02-16T13:01:26.192Z,9.36
2018-02-16T13:03:52.459Z,9.34
2018-02-16T13:06:18.610Z,9.27
2018-02-16T13:08:44.875Z,9.26
2018-02-16T13:11:11.136Z,9.23
2018-02-16T13:13:37.304Z,9.23
2018-02-16T13:16:03.535Z,9.23
2018-02-16T13:18:29.748Z,9.19
2018-02-16T13:20:55.938Z,9.00
2018-02-16T13:23:22.186Z,8.93
2018-02-16T13:25:48.412Z,8.88
2018-02-16T13:28:14.580Z,8.80
2018-02-16T13:30:40.843Z,8.78
2018-02-16T13:33:07.064Z,8.81
2018-02-16T13:35:33.222Z,8.77
2018-02-16T13:37:59.457Z,8.80
2018-02-16T13:40:25.615Z,8.78
2018-02-16T13:42:51.892Z,8.77
2018-02-16T13:45:18.126Z,8.85
2018-02-16T13:47:45.072Z,8.99
2018-02-16T13:50:11.645Z,9.87
2018-02-16T13:52:37.856Z,10.11
2018-02-16T13:55:04.042Z,10.55
2018-02-16T13:57:30.249Z,10.89
2018-02-16T13:59:56.473Z,11.02
2018-02-16T14:02:22.651Z,10.74
2018-02-16T14:04:48.899Z,10.58
2018-02-16T14:07:15.076Z,10.44
2018-02-16T14:09:41.288Z,10.35
2018-02-16T14:12:07.542Z,10.21
2018-02-16T14:14:33.744Z,9.99
2018-02-16T14:16:59.918Z,9.77
2018-02-16T14:19:26.051Z,9.64
2018-02-16T14:21:52.230Z,9.50
2018-02-16T14:24:18.571Z,9.43
2018-02-16T14:26:44.724Z,9.34
2018-02-16T14:29:10.943Z,9.36
2018-02-16T14:31:37.091Z,9.37
2018-02-16T14:34:03.286Z,9.31
2018-02-16T14:36:29.577Z,9.20
2018-02-16T14:38:55.765Z,9.26
2018-02-16T14:41:21.931Z,9.37
2018-02-16T14:43:48.171Z,9.46
2018-02-16T14:46:14.245Z,9.60
2018-02-16T14:48:40.353Z,9.59
2018-02-16T14:51:06.670Z,9.61
2018-02-16T14:53:32.954Z,9.55
2018-02-16T14:55:59.041Z,9.50
2018-02-16T14:58:25.146Z,9.55
2018-02-16T15:00:51.261Z,9.53
2018-02-16T15:03:17.425Z,9.47
2018-02-16T15:05:43.509Z,9.48
2018-02-16T15:08:09.669Z,9.49
2018-02-16T15:10:35.769Z,9.43
2018-02-16T15:13:01.864Z,9.39
2018-02-16T15:15:28.155Z,9.37
2018-02-16T15:17:54.257Z,9.31
2018-02-16T15:20:20.352Z,9.28
2018-02-16T15:22:46.522Z,9.20
2018-02-16T15:25:12.655Z,9.11
2018-02-16T15:27:38.760Z,8.99
2018-02-16T15:30:04.879Z,8.94
2018-02-16T15:32:30.993Z,8.91
2018-02-16T15:34:57.147Z,8.90
2018-02-16T15:37:23.264Z,8.84
2018-02-16T15:39:49.615Z,8.81
2018-02-16T15:42:15.717Z,8.78
2018-02-16T15:44:41.897Z,8.73
2018-02-16T15:47:09.582Z,8.69
2018-02-16T15:49:35.827Z,8.65
2018-02-16T15:52:02.038Z,8.57
2018-02-16T15:54:28.285Z,8.49
2018-02-16T15:56:54.477Z,8.41
2018-02-16T15:59:20.708Z,8.36
2018-02-16T16:01:46.859Z,8.30
2018-02-16T16:04:13.098Z,8.26
2018-02-16T16:06:39.272Z,8.17
2018-02-16T16:09:05.493Z,8.11
2018-02-16T16:11:31.664Z,8.04
2018-02-16T16:13:57.880Z,7.99
2018-02-16T16:16:24.134Z,7.93
2018-02-16T16:18:50.352Z,7.84
2018-02-16T16:21:16.490Z,7.74
2018-02-16T16:23:42.716Z,7.62
2018-02-16T16:26:08.913Z,7.47
2018-02-16T16:28:35.115Z,7.35
2018-02-16T16:31:01.311Z,7.25
2018-02-16T16:33:27.496Z,7.11
2018-02-16T16:35:53.637Z,6.97
2018-02-16T16:38:20.004Z,6.83
2018-02-16T16:40:46.267Z,6.67
2018-02-16T16:43:12.466Z,6.51
2018-02-16T16:45:38.664Z,6.37
2018-02-16T16:48:04.757Z,6.26
2018-02-16T16:50:30.906Z,6.16
2018-02-16T16:52:57.044Z,6.05
2018-02-16T16:55:23.210Z,5.92
2018-02-16T16:57:49.316Z,5.83
2018-02-16T17:00:15.444Z,5.72
2018-02-16T17:02:41.594Z,5.61
2018-02-16T17:05:07.745Z,5.49
2018-02-16T17:07:33.867Z,5.37
2018-02-16T17:10:00.051Z,5.27
2018-02-16T17:12:26.174Z,5.18
2018-02-16T17:14:52.331Z,5.07
2018-02-16T17:17:18.504Z,4.95
2018-02-16T17:19:44.644Z,4.86
2018-02-16T17:22:10.757Z,4.79
2018-02-16T17:24:36.929Z,4.70
2018-02-16T17:27:03.043Z,4.62
2018-02-16T17:29:29.191Z,4.53
2018-02-16T17:31:55.317Z,4.46
2018-02-16T17:34:21.500Z,4.38
2018-02-16T17:36:47.662Z,4.32
2018-02-16T17:39:13.876Z,4.28
2018-02-16T17:41:40.024Z,4.19
2018-02-16T17:44:06.219Z,4.12
2018-02-16T17:46:32.342Z,4.08
2018-02-16T17:48:58.510Z,4.01
2018-02-16T17:51:24.657Z,3.92
2018-02-16T17:53:50.818Z,3.85
2018-02-16T17:56:16.991Z,3.74
2018-02-16T17:58:43.100Z,3.68
2018-02-16T18:01:09.278Z,3.63
2018-02-16T18:03:35.435Z,3.58
2018-02-16T18:06:01.590Z,3.57
2018-02-16T18:08:27.752Z,3.55
2018-02-16T18:10:53.875Z,3.52
2018-02-16T18:13:20.033Z,3.49
2018-02-16T18:15:46.174Z,3.44
2018-02-16T18:18:12.335Z,3.40
2018-02-16T18:20:38.452Z,3.33
2018-02-16T18:23:04.608Z,3.25
2018-02-16T18:25:30.746Z,3.20
2018-02-16T18:27:56.893Z,3.13
2018-02-16T18:30:23.051Z,3.06
2018-02-16T18:32:49.224Z,3.02
2018-02-16T18:35:15.360Z,2.97
2018-02-16T18:37:41.538Z,2.91
2018-02-16T18:40:07.719Z,2.91
2018-02-16T18:42:33.908Z,2.90
2018-02-16T18:45:00.011Z,2.87
2018-02-16T18:47:33.130Z,2.83
2018-02-16T18:49:59.281Z,2.78
2018-02-16T18:52:25.475Z,2.75
2018-02-16T18:54:51.590Z,2.69
2018-02-16T18:57:17.785Z,2.63
2018-02-16T18:59:43.953Z,2.62
2018-02-16T19:02:10.168Z,2.58
2018-02-16T19:04:36.362Z,2.56
2018-02-16T19:07:02.662Z,2.55
2018-02-16T19:09:28.891Z,2.55
2018-02-16T19:11:55.051Z,2.56
2018-02-16T19:14:21.250Z,2.60
2018-02-16T19:16:47.470Z,2.66
2018-02-16T19:19:13.696Z,2.71
2018-02-16T19:21:39.908Z,2.75
2018-02-16T19:24:06.396Z,2.80
2018-02-16T19:26:32.616Z,2.81
2018-02-16T19:28:58.923Z,2.82
2018-02-16T19:31:25.380Z,2.86
2018-02-16T19:33:51.611Z,2.87
2018-02-16T19:36:17.790Z,2.84
2018-02-16T19:38:44.012Z,2.80
2018-02-16T19:41:10.321Z,2.77
2018-02-16T19:43:36.674Z,2.72
2018-02-16T19:46:02.942Z,2.67
2018-02-16T19:48:29.150Z,2.64
2018-02-16T19:50:55.415Z,2.60
2018-02-16T19:53:21.676Z,2.56
2018-02-16T19:55:47.856Z,2.51
2018-02-16T19:58:14.017Z,2.57
2018-02-16T20:00:40.192Z,2.65
2018-02-16T20:03:06.455Z,2.69
2018-02-16T20:05:32.673Z,2.71
2018-02-16T20:07:58.874Z,2.71
2018-02-16T20:10:26.035Z,2.71
2018-02-16T20:12:52.261Z,2.69
2018-02-16T20:15:18.475Z,2.65
2018-02-16T20:17:45.017Z,2.61
2018-02-16T20:20:11.190Z,2.59
2018-02-16T20:22:37.380Z,2.56
2018-02-16T20:25:03.657Z,2.52
2018-02-16T20:27:29.924Z,2.48
2018-02-16T20:29:56.144Z,2.46
2018-02-16T20:32:22.416Z,2.45
2018-02-16T20:34:48.735Z,2.42
2018-02-16T20:37:14.947Z,2.38
2018-02-16T20:39:41.192Z,2.36
2018-02-16T20:42:07.666Z,2.33
2018-02-16T20:44:33.910Z,2.31
2018-02-16T20:47:00.132Z,2.30
2018-02-16T20:49:26.281Z,2.27
2018-02-16T20:51:52.582Z,2.26
2018-02-16T20:54:18.777Z,2.22
2018-02-16T20:56:44.910Z,2.23
2018-02-16T20:59:11.119Z,2.24
2018-02-16T21:01:37.289Z,2.24
2018-02-16T21:04:03.525Z,2.24
2018-02-16T21:06:29.783Z,2.23
2018-02-16T21:08:56.056Z,2.22
2018-02-16T21:11:22.235Z,2.26
2018-02-16T21:13:48.490Z,2.25
2018-02-16T21:16:14.706Z,2.28
2018-02-16T21:18:40.936Z,2.25
2018-02-16T21:21:07.143Z,2.21
2018-02-16T21:23:33.370Z,2.17
2018-02-16T21:25:59.590Z,2.14
2018-02-16T21:28:25.815Z,2.11
2018-02-16T21:30:51.956Z,2.10
2018-02-16T21:33:18.175Z,2.08
2018-02-16T21:35:44.444Z,2.06
2018-02-16T21:38:10.670Z,2.05
2018-02-16T21:40:36.826Z,2.01
2018-02-16T21:43:03.042Z,1.99
2018-02-16T21:45:29.316Z,1.95
2018-02-16T21:47:55.532Z,1.94
2018-02-16T21:50:21.726Z,1.93
2018-02-16T21:52:47.925Z,1.92
2018-02-16T21:55:14.148Z,1.91
2018-02-16T21:57:40.354Z,1.91
2018-02-16T22:00:06.585Z,1.92
2018-02-16T22:02:32.780Z,1.93
2018-02-16T22:04:59.052Z,1.95
2018-02-16T22:07:25.284Z,1.95
2018-02-16T22:09:51.500Z,1.95
2018-02-16T22:12:17.705Z,1.98
2018-02-16T22:14:43.890Z,1.99
2018-02-16T22:17:10.207Z,2.00
2018-02-16T22:19:36.362Z,2.05
2018-02-16T22:22:02.580Z,2.11
2018-02-16T22:24:28.787Z,2.14
2018-02-16T22:26:55.011Z,2.14
2018-02-16T22:29:21.179Z,2.14
2018-02-16T22:31:47.370Z,2.15
2018-02-16T22:34:13.570Z,2.14
2018-02-16T22:36:39.782Z,2.15
2018-02-16T22:39:06.009Z,2.15
2018-02-16T22:41:32.186Z,2.13
2018-02-16T22:43:58.360Z,2.13
2018-02-16T22:46:24.607Z,2.12
2018-02-16T22:48:50.792Z,2.23
2018-02-16T22:51:17.007Z,2.34
2018-02-16T22:53:43.182Z,2.43
2018-02-16T22:56:09.420Z,2.48
2018-02-16T22:58:35.587Z,2.50
2018-02-16T23:01:01.801Z,2.71
2018-02-16T23:03:27.964Z,2.82
2018-02-16T23:05:54.210Z,2.90
2018-02-16T23:08:20.405Z,2.91
2018-02-16T23:10:46.625Z,2.88
2018-02-16T23:13:12.844Z,2.85
2018-02-16T23:15:39.084Z,2.83
2018-02-16T23:18:05.253Z,2.83
2018-02-16T23:20:31.416Z,2.79
2018-02-16T23:22:57.640Z,2.74
2018-02-16T23:25:23.949Z,2.67
2018-02-16T23:27:50.110Z,2.63
2018-02-16T23:30:16.203Z,2.58
2018-02-16T23:32:42.408Z,2.55
2018-02-16T23:35:08.584Z,2.51
2018-02-16T23:37:34.770Z,2.49
2018-02-16T23:40:01.058Z,2.45
2018-02-16T23:42:27.180Z,2.42
2018-02-16T23:44:53.326Z,2.39
2018-02-16T23:47:19.554Z,2.35
2018-02-16T23:49:45.735Z,2.36
2018-02-16T23:52:11.966Z,2.33
2018-02-16T23:54:38.181Z,2.30
2018-02-16T23:57:04.490Z,2.27
2018-02-16T23:59:30.679Z,2.23
